Latest Weather Observations for Hogan Island

IDT60801

Issued at 10:21 pm EDT Thursday 17 January 2019 (issued every 10 minutes, with the page automatically refreshed every 10 minutes)

About weather observations | Map of weather stations | Latest weather observations for TAS | Other Formats
Station Details ID: 200838 Name: HOGAN ISLAND Lat: -39.22 Lon: 146.98 Height: 116.0 m
Data from the previous 72 hours. | See also: Recent months at Hogan Island
Date/Time
EDT
Temp
°C
App
Temp
°C
Dew
Point
°C
Rel
Hum
%
Delta-T
°C
Wind Press
QNH
hPa
Press
MSL
hPa
Rain since
9am
mm
Dir  Spd
km/h
Gust
km/h
Spd
kts
Gust
kts
17/10:00pm 23.8 22.8 17.5 68 3.9 WNW 19 20 10 11 1008.6 - 0.0
17/09:30pm 24.0 23.0 17.5 67 4.1 WNW 19 20 10 11 1008.4 - 0.0
17/09:00pm 24.6 23.4 17.6 65 4.4 WNW 20 22 11 12 1008.4 1008.2 0.0
17/08:30pm 24.4 22.7 18.1 68 4.0 NW 24 28 13 15 1008.2 - 0.0
17/08:00pm 22.7 22.1 18.9 79 2.4 N 20 22 11 12 1007.8 - 0.0
17/07:30pm 21.4 21.8 20.6 95 0.5 N 19 24 10 13 1007.5 - 0.0
17/07:00pm 21.5 21.4 20.8 96 0.5 N 22 30 12 16 1007.4 - 0.0
17/06:30pm 21.1 20.5 20.4 96 0.5 N 24 30 13 16 1007.4 - 0.0
17/06:00pm 21.7 22.6 20.9 95 0.5 NNE 17 22 9 12 1007.3 1007.1 0.0
17/05:30pm 21.3 22.1 20.6 96 0.5 NNE 17 20 9 11 1007.5 - 0.0
17/05:00pm 20.9 20.7 20.6 98 0.2 N 22 26 12 14 1008.2 - 0.0
17/04:30pm 20.8 22.0 19.8 94 0.6 NE 13 19 7 10 1008.3 - 0.0
17/04:00pm 21.1 21.2 19.9 93 0.8 ENE 19 22 10 12 1008.0 - 0.0
17/03:30pm 21.8 21.8 20.1 90 1.1 ENE 20 24 11 13 1008.1 - 0.0
17/03:00pm 22.7 22.3 20.2 86 1.6 ENE 22 26 12 14 1008.0 1007.8 0.0
17/02:30pm 23.6 23.4 20.5 83 2.0 ENE 22 26 12 14 1008.3 - 0.0
17/02:00pm 22.1 21.6 21.4 96 0.5 ENE 26 33 14 18 1008.2 - 0.0
17/01:30pm 20.5 20.1 19.3 93 0.8 ENE 20 24 11 13 1008.8 - 0.0
17/01:00pm 23.3 22.8 19.9 81 2.2 E 22 28 12 15 1009.2 - 0.0
17/12:30pm 23.1 21.5 19.3 79 2.4 E 26 30 14 16 1009.2 - 0.0
17/12:00pm 22.6 20.2 19.2 81 2.2 E 30 33 16 18 1009.2 1009.0 0.0
17/11:30am 22.3 20.8 19.5 84 1.8 ESE 26 30 14 16 1009.2 - 0.0
17/11:00am 22.5 20.3 20.4 88 1.4 SE 32 37 17 20 1009.2 - 0.0
17/10:30am 21.6 18.5 18.4 82 2.0 SE 32 39 17 21 1009.1 - 0.0
17/10:00am 21.6 19.0 17.8 79 2.4 SE 28 32 15 17 1009.1 - 0.0
17/09:30am 20.5 16.9 19.3 93 0.8 SE 37 44 20 24 1008.4 - 0.0
17/09:00am 19.4 17.1 19.4 100 0.0 SE 30 35 16 19 1009.0 1008.8 0.0
17/08:30am 19.4 17.5 19.4 100 0.0 ESE 28 33 15 18 1008.5 - 0.0
17/08:00am 19.2 18.0 19.2 100 0.0 ESE 24 28 13 15 1008.3 - 0.0
17/07:30am 18.9 17.1 18.7 99 0.1 E 26 32 14 17 1008.2 - 0.0
17/07:00am 18.9 17.8 18.7 99 0.1 E 22 28 12 15 1008.5 - 0.0
17/06:30am 18.7 18.6 18.7 100 0.0 SSE 17 20 9 11 1009.3 - 0.0
17/06:00am 18.9 16.8 18.9 100 0.0 ESE 28 35 15 19 1007.9 1007.7 0.0
17/05:30am 18.7 15.1 18.5 99 0.1 ESE 35 39 19 21 1006.4 - 0.0
17/05:00am 18.8 16.6 18.6 99 0.1 ESE 28 32 15 17 1007.6 - 0.0
17/04:30am 18.6 16.6 18.4 99 0.1 ESE 26 28 14 15 1007.5 - 0.0
17/04:00am 18.7 17.2 18.5 99 0.1 SE 24 28 13 15 1007.4 - 0.0
17/03:30am 18.6 17.5 17.4 93 0.7 SE 19 22 10 12 1007.8 - 0.0
17/03:00am 19.5 18.0 16.2 81 2.0 NE 19 28 10 15 1007.7 1007.5 0.0
17/02:30am 19.2 15.5 17.0 87 1.3 NNE 32 35 17 19 1008.0 - 0.0
17/02:00am 18.9 15.8 18.4 97 0.3 NNE 32 37 17 20 1008.2 - 0.0
17/01:30am 18.9 15.4 17.9 94 0.6 NNE 33 39 18 21 1009.1 - 0.0
17/01:00am 18.5 14.6 17.8 96 0.4 N 35 41 19 22 1009.7 - 0.0
17/12:30am 18.4 13.9 18.2 99 0.1 N 39 43 21 23 1010.2 - 0.0
17/12:00am 18.3 14.0 17.7 96 0.4 NNE 37 46 20 25 1010.5 1010.4 0.0
 
Date/Time
EDT
Temp
°C
App
Temp
°C
Dew
Point
°C
Rel
Hum
%
Delta-T
°C
Wind Press
QNH
hPa
Press
MSL
hPa
Rain since
9am
mm
Dir  Spd
km/h
Gust
km/h
Spd
kts
Gust
kts
16/11:30pm 18.3 14.0 17.7 96 0.4 NNE 37 43 20 23 1010.7 - 0.0
16/11:00pm 18.0 15.0 17.8 99 0.1 NNE 30 35 16 19 1011.2 - 0.0
16/10:30pm 18.1 14.2 17.9 99 0.1 NNE 35 43 19 23 1012.4 - 0.0
16/10:00pm 18.1 15.2 17.9 99 0.1 NE 30 37 16 20 1012.4 - 0.0
16/09:30pm 18.0 14.6 17.8 99 0.1 NE 32 35 17 19 1012.0 - 0.0
16/09:00pm 17.7 14.8 17.1 96 0.4 NE 28 32 15 17 1012.2 1012.0 0.0
16/08:30pm 17.4 15.9 16.8 96 0.4 E 20 22 11 12 1012.2 - 0.0
16/08:00pm 17.7 17.7 16.2 91 0.9 W 11 19 6 10 1013.1 - 0.0
16/07:30pm 18.2 17.6 16.7 91 0.9 WSW 15 32 8 17 1014.0 - 0.0
16/07:00pm 18.1 16.6 16.4 90 1.0 W 19 20 10 11 1013.2 - 0.0
16/06:30pm 18.4 16.9 16.4 88 1.2 WSW 19 20 10 11 1012.8 - 0.0
16/06:00pm 18.9 17.0 16.7 87 1.3 SW 22 28 12 15 1012.4 1012.2 0.0
16/05:30pm 20.8 17.4 16.8 78 2.4 SW 30 33 16 18 1012.4 - 0.0
16/05:00pm 21.1 19.3 16.9 77 2.6 SW 22 24 12 13 1012.1 - 0.0
16/04:30pm 21.4 20.1 17.2 77 2.6 SW 20 24 11 13 1011.8 - 0.0
16/04:00pm 20.3 18.9 16.9 81 2.1 SW 20 26 11 14 1012.1 - 0.0
16/03:30pm 19.3 15.0 16.9 86 1.5 SW 35 41 19 22 1012.2 - 0.0
16/03:00pm 19.5 15.7 17.1 86 1.5 WSW 33 37 18 20 1012.4 1012.2 0.0
16/02:30pm 21.4 18.1 17.0 76 2.7 SW 30 33 16 18 1011.8 - 0.0
16/02:00pm 20.8 17.9 17.0 79 2.3 SW 28 33 15 18 1011.5 - 0.0
16/01:30pm 21.7 18.7 16.9 74 2.9 SW 28 32 15 17 1011.5 - 0.0
16/01:00pm 22.2 19.9 17.6 75 2.9 SW 26 30 14 16 1011.6 - 0.0
16/12:30pm 21.8 19.1 17.6 77 2.6 WSW 28 32 15 17 1011.7 - 0.0
16/12:00pm 21.3 19.3 17.3 78 2.5 WSW 24 30 13 16 1011.3 1011.1 0.0
16/11:30am 21.4 19.5 17.6 79 2.4 WSW 24 30 13 16 1011.4 - 0.0
16/11:00am 18.9 16.4 17.0 89 1.2 WSW 26 30 14 16 1011.3 - 0.0
16/10:30am 18.9 16.5 17.4 91 0.9 WSW 26 30 14 16 1011.0 - 0.0
16/10:00am 18.8 16.8 17.5 92 0.8 WSW 24 26 13 14 1010.7 - 0.0
16/09:30am 19.4 17.7 17.2 87 1.3 W 22 26 12 14 1010.6 - 0.0
16/09:00am 19.8 18.7 18.6 93 0.8 WSW 22 26 12 14 1010.9 1010.7 0.0
16/08:30am 18.6 17.0 18.4 99 0.1 WSW 24 28 13 15 1010.7 - 0.0
16/08:00am 18.0 15.9 18.0 100 0.0 WSW 26 30 14 16 1010.4 - 0.0
16/07:30am 17.6 15.3 17.6 100 0.0 WSW 26 30 14 16 1009.9 - 0.0
16/07:00am 17.5 14.8 17.5 100 0.0 WSW 28 32 15 17 1009.3 - 0.0
16/06:30am 17.3 14.9 17.3 100 0.0 WSW 26 30 14 16 1009.0 - 0.0
16/06:00am 17.1 15.7 17.1 100 0.0 WSW 20 24 11 13 1008.8 1008.6 0.0
16/05:30am 16.7 15.7 16.7 100 0.0 WSW 17 20 9 11 1008.5 - 0.0
16/05:00am 16.4 14.9 16.4 100 0.0 SW 19 24 10 13 1008.1 - 0.0
16/04:30am 16.9 14.3 16.9 100 0.0 WSW 26 30 14 16 1008.5 - 0.0
16/04:00am 17.1 14.6 17.1 100 0.0 SW 26 32 14 17 1008.4 - 0.0
16/03:30am 17.7 14.3 17.7 100 0.0 SW 32 35 17 19 1008.6 - 0.0
16/03:00am 17.2 14.4 17.2 100 0.0 SW 28 32 15 17 1008.8 1008.6 0.0
16/02:30am 17.4 15.8 17.4 100 0.0 SW 22 26 12 14 1008.9 - 0.0
16/02:00am 17.8 16.7 17.8 100 0.0 SW 20 24 11 13 1009.0 - 0.0
16/01:30am 18.0 17.0 18.0 100 0.0 SW 20 22 11 12 1009.3 - 0.0
16/01:00am 18.1 17.7 18.1 100 0.0 WSW 17 20 9 11 1009.4 - 0.0
16/12:30am 18.5 17.3 18.5 100 0.0 SW 22 28 12 15 1009.7 - 0.0
16/12:00am 19.2 18.4 19.2 100 0.0 NW 22 26 12 14 1009.3 1009.1 0.0
 
Date/Time
EDT
Temp
°C
App
Temp
°C
Dew
Point
°C
Rel
Hum
%
Delta-T
°C
Wind Press
QNH
hPa
Press
MSL
hPa
Rain since
9am
mm
Dir  Spd
km/h
Gust
km/h
Spd
kts
Gust
kts
15/11:30pm 19.4 17.2 18.7 96 0.4 N 28 32 15 17 1008.9 - 0.0
15/11:00pm 21.1 19.0 16.3 74 2.9 N 22 26 12 14 1008.5 - 0.0
15/10:30pm 21.4 19.8 16.6 74 2.9 NNW 20 26 11 14 1009.0 - 0.0
15/10:00pm 19.8 18.7 17.8 88 1.2 NW 20 24 11 13 1009.3 - 0.0
15/09:30pm 19.1 18.5 18.9 99 0.1 WNW 20 24 11 13 1009.3 - 0.0
15/09:00pm 18.3 17.9 18.1 99 0.1 WNW 17 24 9 13 1009.1 1008.9 0.0
15/08:30pm 18.6 17.5 17.4 93 0.7 WNW 19 24 10 13 1009.4 - 0.0
15/08:00pm 21.9 22.4 17.5 76 2.7 WNW 11 15 6 8 1008.7 - 0.0
15/07:30pm 21.2 23.4 21.2 100 0.0 W 11 15 6 8 1008.9 - 0.0
15/07:00pm 18.9 20.0 18.9 100 0.0 W 11 15 6 8 1009.2 - 0.0
15/06:30pm 18.9 18.2 18.7 99 0.1 WSW 20 24 11 13 1009.2 - 0.0
15/06:00pm 19.1 19.0 18.8 98 0.2 SW 17 22 9 12 1008.9 1008.7 0.0
15/05:30pm 23.6 24.1 16.6 65 4.3 WSW 9 13 5 7 1008.8 - 0.0
15/05:00pm 25.1 26.3 16.8 60 5.1 W 6 9 3 5 1008.8 - 0.0
15/04:30pm 24.3 24.5 16.8 63 4.6 NW 11 15 6 8 1008.9 - 0.0
15/04:00pm 24.9 26.0 17.1 62 4.9 W 7 11 4 6 1008.8 - 0.0
15/03:30pm 25.5 26.3 17.2 60 5.2 WNW 9 13 5 7 1008.9 - 0.0
15/03:00pm 25.9 26.9 18.6 64 4.7 WSW 11 15 6 8 1009.0 1008.8 0.0
15/02:30pm 25.8 28.0 20.4 72 3.5 WSW 9 13 5 7 1009.0 - 0.0
15/02:00pm 22.9 23.4 19.3 80 2.3 SW 15 17 8 9 1009.2 - 0.0
15/01:30pm 22.5 23.1 19.5 83 1.9 SW 15 19 8 10 1009.4 - 0.0
15/01:00pm 24.3 26.5 20.4 79 2.5 SSW 9 13 5 7 1009.2 - 0.0
15/12:30pm 22.1 23.2 19.6 86 1.6 SW 13 17 7 9 1009.3 - 0.0
15/12:00pm 23.0 25.0 20.0 83 1.9 W 9 13 5 7 1009.4 1009.2 0.0
15/11:30am 21.0 22.5 20.5 97 0.3 WSW 13 17 7 9 1009.6 - 0.0
15/11:00am 21.5 24.3 21.5 100 0.0 W 9 13 5 7 1009.4 - 0.0
15/10:30am 20.1 22.5 20.1 100 0.0 N 7 13 4 7 1009.4 - 0.0
15/10:00am 21.2 23.4 21.2 100 0.0 N 11 17 6 9 1009.6 - 0.0
15/09:30am 19.3 18.9 19.3 100 0.0 N 20 26 11 14 1009.5 - 0.0
15/09:00am 19.8 20.2 19.8 100 0.0 N 17 22 9 12 1009.7 1009.5 0.2
15/08:30am 19.3 19.5 19.3 100 0.0 NNE 17 20 9 11 1009.8 - 0.2
15/08:00am 18.6 18.4 18.6 100 0.0 NNE 17 20 9 11 1009.8 - 0.2
15/07:30am 18.3 18.0 18.3 100 0.0 NE 17 19 9 10 1009.6 - 0.0
15/07:00am 18.1 17.7 18.1 100 0.0 ENE 17 19 9 10 1009.6 - 0.0
15/06:30am 18.2 17.9 18.2 100 0.0 E 17 20 9 11 1009.4 - 0.0
15/06:00am 18.2 17.5 18.2 100 0.0 E 19 20 10 11 1009.3 1009.1 0.0
15/05:30am 18.2 17.5 18.2 100 0.0 E 19 22 10 12 1009.3 - 0.0
15/05:00am 18.2 17.5 18.2 100 0.0 E 19 22 10 12 1009.5 - 0.0
15/04:30am 18.2 16.9 18.2 100 0.0 ESE 22 26 12 14 1009.5 - 0.0
15/04:00am 18.4 16.8 18.4 100 0.0 SE 24 32 13 17 1009.7 - 0.0
15/03:30am 18.5 17.0 18.5 100 0.0 SSE 24 28 13 15 1009.9 - 0.0
15/03:00am 18.6 17.5 18.6 100 0.0 SE 22 28 12 15 1010.1 1009.9 0.0
15/02:30am 18.6 17.9 18.6 100 0.0 SE 20 24 11 13 1010.5 - 0.0
15/02:00am 18.6 18.4 18.6 100 0.0 SE 17 20 9 11 1010.9 - 0.0
15/01:30am 18.7 19.0 18.7 100 0.0 SSE 15 17 8 9 1011.2 - 0.0
15/01:00am 18.9 18.9 18.9 100 0.0 SSE 17 20 9 11 1011.3 - 0.0
15/12:30am 19.1 19.2 19.1 100 0.0 SSE 17 20 9 11 1011.5 - 0.0
15/12:00am 19.2 20.1 19.2 100 0.0 SSE 13 17 7 9 1011.6 1011.4 0.0
 
Date/Time
EDT
Temp
°C
App
Temp
°C
Dew
Point
°C
Rel
Hum
%
Delta-T
°C
Wind Press
QNH
hPa
Press
MSL
hPa
Rain since
9am
mm
Dir  Spd
km/h
Gust
km/h
Spd
kts
Gust
kts
14/11:30pm 19.4 22.5 19.4 100 0.0 NNE 2 7 1 4 1012.1 - 0.0
14/11:00pm 19.6 22.0 19.6 100 0.0 NNE 6 9 3 5 1012.5 - 0.0
14/10:30pm 19.6 21.4 19.6 100 0.0 E 9 11 5 6 1012.6 - 0.0

Other Formats:

Comma delimited format used in spreadsheet applications
http://www.bom.gov.au/fwo/IDT60801/IDT60801.94949.axf

JavaScript Object Notation format (JSON) in row-major order
http://www.bom.gov.au/fwo/IDT60801/IDT60801.94949.json